Elliston, Canada
Current Conditions -  °F | °C
As of 11:00 PM on Thursday 20 Nov 2014 (Local Time) from CYYT Reporting Station
Clear Clear  
Wind Chill: 19°   Ceiling: Unl
Heat Index: 30°   Visibility: 15mi
Dew Point: 23°   Wind: 15mph
Humidity: 75%   Direction: 190°S
Pressure: 30.1"   Gusts: NA
Location:  48.62°N, 53.03°W
Report Text: CYYT 210200Z 19013KT 15SM SKC M01/M05 A3010 RMK SLP198
Loading
Personal Weather Stations






























Interactive Weather Map New forecast layout! Learn more

10-Day Weather Forecast

Advertisements
Track Severe Weather on mobile